sensor_id;sensor_type;location;lat;lon;timestamp;temperature;humidity
69225;DHT22;56333;51.306;17.056;2023-02-01T00:00:35;4.03;80.80
69225;DHT22;56333;51.306;17.056;2023-02-01T00:02:05;4.01;80.72
69225;DHT22;56333;51.306;17.056;2023-02-01T00:03:34;3.99;80.65
69225;DHT22;56333;51.306;17.056;2023-02-01T00:05:03;3.96;80.60
69225;DHT22;56333;51.306;17.056;2023-02-01T00:06:34;3.96;80.60
69225;DHT22;56333;51.306;17.056;2023-02-01T00:08:03;3.95;80.70
69225;DHT22;56333;51.306;17.056;2023-02-01T00:09:34;3.94;80.80
69225;DHT22;56333;51.306;17.056;2023-02-01T00:11:04;3.95;80.90
69225;DHT22;56333;51.306;17.056;2023-02-01T00:12:35;3.93;80.93
69225;DHT22;56333;51.306;17.056;2023-02-01T00:14:04;3.92;80.82
69225;DHT22;56333;51.306;17.056;2023-02-01T00:15:33;3.89;80.68
69225;DHT22;56333;51.306;17.056;2023-02-01T00:17:02;3.86;80.57
69225;DHT22;56333;51.306;17.056;2023-02-01T00:18:31;3.81;80.43
69225;DHT22;56333;51.306;17.056;2023-02-01T00:20:00;3.77;80.40
69225;DHT22;56333;51.306;17.056;2023-02-01T00:21:31;3.72;80.30
69225;DHT22;56333;51.306;17.056;2023-02-01T00:23:00;3.68;80.40
69225;DHT22;56333;51.306;17.056;2023-02-01T00:24:29;3.66;80.53
69225;DHT22;56333;51.306;17.056;2023-02-01T00:25:59;3.65;80.75
69225;DHT22;56333;51.306;17.056;2023-02-01T00:27:29;3.66;80.93
69225;DHT22;56333;51.306;17.056;2023-02-01T00:28:58;3.66;81.10
69225;DHT22;56333;51.306;17.056;2023-02-01T00:30:28;3.70;81.15
69225;DHT22;56333;51.306;17.056;2023-02-01T00:31:57;3.73;81.13
69225;DHT22;56333;51.306;17.056;2023-02-01T00:33:26;3.77;81.00
69225;DHT22;56333;51.306;17.056;2023-02-01T00:34:56;3.79;80.95
69225;DHT22;56333;51.306;17.056;2023-02-01T00:36:24;3.80;80.82
69225;DHT22;56333;51.306;17.056;2023-02-01T00:37:54;3.80;80.93
69225;DHT22;56333;51.306;17.056;2023-02-01T00:39:24;3.81;80.82
69225;DHT22;56333;51.306;17.056;2023-02-01T00:40:53;3.81;81.00
69225;DHT22;56333;51.306;17.056;2023-02-01T00:42:29;3.84;81.10
69225;DHT22;56333;51.306;17.056;2023-02-01T00:43:58;3.85;81.30
69225;DHT22;56333;51.306;17.056;2023-02-01T00:45:28;3.87;81.40
69225;DHT22;56333;51.306;17.056;2023-02-01T00:46:57;3.92;81.38
69225;DHT22;56333;51.306;17.056;2023-02-01T00:48:26;3.93;81.30
69225;DHT22;56333;51.306;17.056;2023-02-01T00:49:56;3.97;81.28
69225;DHT22;56333;51.306;17.056;2023-02-01T00:51:26;3.97;81.15
69225;DHT22;56333;51.306;17.056;2023-02-01T00:52:56;3.99;81.10
69225;DHT22;56333;51.306;17.056;2023-02-01T00:54:25;4.01;81.07
69225;DHT22;56333;51.306;17.056;2023-02-01T00:55:54;4.03;81.13
69225;DHT22;56333;51.306;17.056;2023-02-01T00:57:23;4.06;81.25
69225;DHT22;56333;51.306;17.056;2023-02-01T00:58:52;4.08;81.38
69225;DHT22;56333;51.306;17.056;2023-02-01T01:00:21;4.11;81.40
69225;DHT22;56333;51.306;17.056;2023-02-01T01:01:50;4.12;81.32
69225;DHT22;56333;51.306;17.056;2023-02-01T01:03:22;4.13;81.18
69225;DHT22;56333;51.306;17.056;2023-02-01T01:04:55;4.11;81.03
69225;DHT22;56333;51.306;17.056;2023-02-01T01:06:25;4.09;80.90
69225;DHT22;56333;51.306;17.056;2023-02-01T01:07:58;4.07;80.80
69225;DHT22;56333;51.306;17.056;2023-02-01T01:09:27;4.03;80.82
69225;DHT22;56333;51.306;17.056;2023-02-01T01:10:56;4.01;80.93
69225;DHT22;56333;51.306;17.056;2023-02-01T01:12:26;3.99;81.05
69225;DHT22;56333;51.306;17.056;2023-02-01T01:13:56;3.97;81.20
69225;DHT22;56333;51.306;17.056;2023-02-01T01:15:27;3.96;81.28
69225;DHT22;56333;51.306;17.056;2023-02-01T01:16:57;3.94;81.22
69225;DHT22;56333;51.306;17.056;2023-02-01T01:18:27;3.90;81.07
69225;DHT22;56333;51.306;17.056;2023-02-01T01:20:00;3.88;80.97
69225;DHT22;56333;51.306;17.056;2023-02-01T01:21:28;3.84;80.97
69225;DHT22;56333;51.306;17.056;2023-02-01T01:22:57;3.80;80.95
69225;DHT22;56333;51.306;17.056;2023-02-01T01:24:27;3.76;80.95
69225;DHT22;56333;51.306;17.056;2023-02-01T01:25:56;3.74;81.15
69225;DHT22;56333;51.306;17.056;2023-02-01T01:27:25;3.72;81.30
69225;DHT22;56333;51.306;17.056;2023-02-01T01:28:56;3.71;81.40
69225;DHT22;56333;51.306;17.056;2023-02-01T01:30:25;3.69;81.50
69225;DHT22;56333;51.306;17.056;2023-02-01T01:31:53;3.70;81.38
69225;DHT22;56333;51.306;17.056;2023-02-01T01:33:21;3.65;81.25
69225;DHT22;56333;51.306;17.056;2023-02-01T01:34:50;3.64;81.20
69225;DHT22;56333;51.306;17.056;2023-02-01T01:36:20;3.61;81.25
69225;DHT22;56333;51.306;17.056;2023-02-01T01:37:50;3.58;81.20
69225;DHT22;56333;51.306;17.056;2023-02-01T01:39:20;3.56;81.30
69225;DHT22;56333;51.306;17.056;2023-02-01T01:40:48;3.54;81.40
69225;DHT22;56333;51.306;17.056;2023-02-01T01:42:17;3.55;81.60
69225;DHT22;56333;51.306;17.056;2023-02-01T01:43:54;3.57;81.63
69225;DHT22;56333;51.306;17.056;2023-02-01T01:45:28;3.59;81.60
69225;DHT22;56333;51.306;17.056;2023-02-01T01:46:58;3.60;81.53
69225;DHT22;56333;51.306;17.056;2023-02-01T01:48:28;3.62;81.30
69225;DHT22;56333;51.306;17.056;2023-02-01T01:49:58;3.62;81.30
69225;DHT22;56333;51.306;17.056;2023-02-01T01:51:29;3.63;81.20
69225;DHT22;56333;51.306;17.056;2023-02-01T01:53:05;3.65;81.28
69225;DHT22;56333;51.306;17.056;2023-02-01T01:54:39;3.67;81.30
69225;DHT22;56333;51.306;17.056;2023-02-01T01:56:10;3.71;81.38
69225;DHT22;56333;51.306;17.056;2023-02-01T01:57:41;3.76;81.45
69225;DHT22;56333;51.306;17.056;2023-02-01T01:59:14;3.82;81.40
69225;DHT22;56333;51.306;17.056;2023-02-01T02:00:44;3.86;81.22
69225;DHT22;56333;51.306;17.056;2023-02-01T02:02:13;3.89;80.97
69225;DHT22;56333;51.306;17.056;2023-02-01T02:03:44;3.89;80.72
69225;DHT22;56333;51.306;17.056;2023-02-01T02:05:14;3.87;80.60
69225;DHT22;56333;51.306;17.056;2023-02-01T02:06:47;3.88;80.40
69225;DHT22;56333;51.306;17.056;2023-02-01T02:08:22;3.86;80.43
69225;DHT22;56333;51.306;17.056;2023-02-01T02:09:53;3.86;80.50
69225;DHT22;56333;51.306;17.056;2023-02-01T02:11:23;3.86;80.55
69225;DHT22;56333;51.306;17.056;2023-02-01T02:12:51;3.87;80.70
69225;DHT22;56333;51.306;17.056;2023-02-01T02:14:21;3.87;80.78
69225;DHT22;56333;51.306;17.056;2023-02-01T02:15:57;3.89;80.78
69225;DHT22;56333;51.306;17.056;2023-02-01T02:17:52;3.89;80.63
69225;DHT22;56333;51.306;17.056;2023-02-01T02:24:37;3.96;80.63
69225;DHT22;56333;51.306;17.056;2023-02-01T02:26:46;3.98;80.68
69225;DHT22;56333;51.306;17.056;2023-02-01T02:29:11;4.00;80.82
69225;DHT22;56333;51.306;17.056;2023-02-01T02:31:39;4.05;81.00
69225;DHT22;56333;51.306;17.056;2023-02-01T02:34:02;4.08;80.95
69225;DHT22;56333;51.306;17.056;2023-02-01T02:35:43;4.10;80.78
69225;DHT22;56333;51.306;17.056;2023-02-01T02:37:27;4.11;80.60
69225;DHT22;56333;51.306;17.056;2023-02-01T02:39:07;4.11;80.55
69225;DHT22;56333;51.306;17.056;2023-02-01T02:40:45;4.12;80.50
69225;DHT22;56333;51.306;17.056;2023-02-01T02:42:24;4.11;80.60
69225;DHT22;56333;51.306;17.056;2023-02-01T02:44:27;4.12;80.70
69225;DHT22;56333;51.306;17.056;2023-02-01T02:46:23;4.14;80.78
69225;DHT22;56333;51.306;17.056;2023-02-01T02:48:17;4.16;80.80
69225;DHT22;56333;51.306;17.056;2023-02-01T02:49:54;4.17;80.70
69225;DHT22;56333;51.306;17.056;2023-02-01T02:51:52;4.15;80.47
69225;DHT22;56333;51.306;17.056;2023-02-01T02:53:46;4.14;80.30
69225;DHT22;56333;51.306;17.056;2023-02-01T02:55:41;4.11;80.20
69225;DHT22;56333;51.306;17.056;2023-02-01T02:57:14;4.08;80.18
69225;DHT22;56333;51.306;17.056;2023-02-01T02:59:04;4.08;80.22
69225;DHT22;56333;51.306;17.056;2023-02-01T03:00:54;4.09;80.35
69225;DHT22;56333;51.306;17.056;2023-02-01T03:02:41;4.11;80.43
69225;DHT22;56333;51.306;17.056;2023-02-01T03:04:29;4.11;80.40
69225;DHT22;56333;51.306;17.056;2023-02-01T03:05:58;4.14;80.30
69225;DHT22;56333;51.306;17.056;2023-02-01T03:07:57;4.15;80.20
69225;DHT22;56333;51.306;17.056;2023-02-01T03:09:35;4.16;79.97
69225;DHT22;56333;51.306;17.056;2023-02-01T03:11:09;4.16;79.85
69225;DHT22;56333;51.306;17.056;2023-02-01T03:12:41;4.17;79.70
69225;DHT22;56333;51.306;17.056;2023-02-01T03:14:22;4.18;79.63
69225;DHT22;56333;51.306;17.056;2023-02-01T03:16:00;4.19;79.75
69225;DHT22;56333;51.306;17.056;2023-02-01T03:17:40;4.22;79.88
69225;DHT22;56333;51.306;17.056;2023-02-01T03:19:11;4.24;79.78
69225;DHT22;56333;51.306;17.056;2023-02-01T03:20:47;4.24;79.82
69225;DHT22;56333;51.306;17.056;2023-02-01T03:22:20;4.26;79.60
69225;DHT22;56333;51.306;17.056;2023-02-01T03:23:52;4.25;79.32
69225;DHT22;56333;51.306;17.056;2023-02-01T03:25:27;4.23;79.15
69225;DHT22;56333;51.306;17.056;2023-02-01T03:27:00;4.20;78.82
69225;DHT22;56333;51.306;17.056;2023-02-01T03:28:34;4.16;78.88
69225;DHT22;56333;51.306;17.056;2023-02-01T03:30:11;4.13;78.88
69225;DHT22;56333;51.306;17.056;2023-02-01T03:31:46;4.08;78.75
69225;DHT22;56333;51.306;17.056;2023-02-01T03:33:17;4.05;78.75
69225;DHT22;56333;51.306;17.056;2023-02-01T03:34:49;4.03;78.93
69225;DHT22;56333;51.306;17.056;2023-02-01T03:36:23;4.03;79.03
69225;DHT22;56333;51.306;17.056;2023-02-01T03:38:03;4.04;79.13
69225;DHT22;56333;51.306;17.056;2023-02-01T03:39:44;4.09;79.22
69225;DHT22;56333;51.306;17.056;2023-02-01T03:41:20;4.09;79.20
69225;DHT22;56333;51.306;17.056;2023-02-01T03:42:57;4.11;79.05
69225;DHT22;56333;51.306;17.056;2023-02-01T03:44:32;4.10;78.82
69225;DHT22;56333;51.306;17.056;2023-02-01T03:46:11;4.11;78.70
69225;DHT22;56333;51.306;17.056;2023-02-01T03:47:48;4.13;78.60
69225;DHT22;56333;51.306;17.056;2023-02-01T03:49:23;4.12;78.50
69225;DHT22;56333;51.306;17.056;2023-02-01T03:50:55;4.13;78.50
69225;DHT22;56333;51.306;17.056;2023-02-01T03:52:29;4.16;78.57
69225;DHT22;56333;51.306;17.056;2023-02-01T03:54:04;4.18;78.72
69225;DHT22;56333;51.306;17.056;2023-02-01T03:55:39;4.22;78.78
69225;DHT22;56333;51.306;17.056;2023-02-01T03:57:11;4.23;78.63
69225;DHT22;56333;51.306;17.056;2023-02-01T03:58:45;4.24;78.32
69225;DHT22;56333;51.306;17.056;2023-02-01T04:00:25;4.20;78.30
69225;DHT22;56333;51.306;17.056;2023-02-01T04:01:54;4.19;78.13
69225;DHT22;56333;51.306;17.056;2023-02-01T04:03:24;4.15;77.85
69225;DHT22;56333;51.306;17.056;2023-02-01T04:04:57;4.11;77.88
69225;DHT22;56333;51.306;17.056;2023-02-01T04:06:26;4.06;77.78
69225;DHT22;56333;51.306;17.056;2023-02-01T04:07:58;4.02;77.85
69225;DHT22;56333;51.306;17.056;2023-02-01T04:09:27;4.00;77.95
69225;DHT22;56333;51.306;17.056;2023-02-01T04:10:57;4.00;78.20
69225;DHT22;56333;51.306;17.056;2023-02-01T04:12:26;4.01;78.43
69225;DHT22;56333;51.306;17.056;2023-02-01T04:13:54;4.05;78.53
69225;DHT22;56333;51.306;17.056;2023-02-01T04:15:28;4.07;78.45
69225;DHT22;56333;51.306;17.056;2023-02-01T04:16:58;4.07;78.22
69225;DHT22;56333;51.306;17.056;2023-02-01T04:18:27;4.06;78.20
69225;DHT22;56333;51.306;17.056;2023-02-01T04:19:56;4.03;78.10
69225;DHT22;56333;51.306;17.056;2023-02-01T04:21:25;4.00;78.00
69225;DHT22;56333;51.306;17.056;2023-02-01T04:22:54;3.98;77.95
69225;DHT22;56333;51.306;17.056;2023-02-01T04:24:23;3.94;77.82
69225;DHT22;56333;51.306;17.056;2023-02-01T04:25:53;3.91;77.88
69225;DHT22;56333;51.306;17.056;2023-02-01T04:27:26;3.89;78.03
69225;DHT22;56333;51.306;17.056;2023-02-01T04:28:55;3.87;78.20
69225;DHT22;56333;51.306;17.056;2023-02-01T04:30:24;3.87;78.30
69225;DHT22;56333;51.306;17.056;2023-02-01T04:31:53;3.89;78.28
69225;DHT22;56333;51.306;17.056;2023-02-01T04:33:22;3.88;78.20
69225;DHT22;56333;51.306;17.056;2023-02-01T04:34:51;3.88;78.13
69225;DHT22;56333;51.306;17.056;2023-02-01T04:36:20;3.89;78.07
69225;DHT22;56333;51.306;17.056;2023-02-01T04:37:49;3.89;78.00
69225;DHT22;56333;51.306;17.056;2023-02-01T04:39:19;3.90;77.88
69225;DHT22;56333;51.306;17.056;2023-02-01T04:40:49;3.91;77.85
69225;DHT22;56333;51.306;17.056;2023-02-01T04:42:18;3.93;77.93
69225;DHT22;56333;51.306;17.056;2023-02-01T04:43:48;3.96;78.05
69225;DHT22;56333;51.306;17.056;2023-02-01T04:45:17;4.00;78.18
69225;DHT22;56333;51.306;17.056;2023-02-01T04:46:46;4.05;78.30
69225;DHT22;56333;51.306;17.056;2023-02-01T04:48:15;4.11;78.30
69225;DHT22;56333;51.306;17.056;2023-02-01T04:49:46;4.15;78.28
69225;DHT22;56333;51.306;17.056;2023-02-01T04:51:15;4.19;77.93
69225;DHT22;56333;51.306;17.056;2023-02-01T04:52:44;4.21;77.80
69225;DHT22;56333;51.306;17.056;2023-02-01T04:54:14;4.24;77.65
69225;DHT22;56333;51.306;17.056;2023-02-01T04:55:43;4.27;77.53
69225;DHT22;56333;51.306;17.056;2023-02-01T04:57:15;4.29;77.35
69225;DHT22;56333;51.306;17.056;2023-02-01T04:58:44;4.29;77.22
69225;DHT22;56333;51.306;17.056;2023-02-01T05:00:15;4.32;77.25
69225;DHT22;56333;51.306;17.056;2023-02-01T05:01:45;4.32;77.10
69225;DHT22;56333;51.306;17.056;2023-02-01T05:03:13;4.35;77.32
69225;DHT22;56333;51.306;17.056;2023-02-01T05:04:43;4.37;77.38
69225;DHT22;56333;51.306;17.056;2023-02-01T05:06:12;4.40;77.63
69225;DHT22;56333;51.306;17.056;2023-02-01T05:07:41;4.44;77.63
69225;DHT22;56333;51.306;17.056;2023-02-01T05:09:10;4.48;77.53
69225;DHT22;56333;51.306;17.056;2023-02-01T05:10:39;4.49;77.22
69225;DHT22;56333;51.306;17.056;2023-02-01T05:12:12;4.50;76.95
69225;DHT22;56333;51.306;17.056;2023-02-01T05:13:58;4.52;76.88
69225;DHT22;56333;51.306;17.056;2023-02-01T05:15:27;4.51;76.63
69225;DHT22;56333;51.306;17.056;2023-02-01T05:16:56;4.53;76.78
69225;DHT22;56333;51.306;17.056;2023-02-01T05:18:25;4.53;76.60
69225;DHT22;56333;51.306;17.056;2023-02-01T05:19:54;4.53;76.57
69225;DHT22;56333;51.306;17.056;2023-02-01T05:21:23;4.53;76.55
69225;DHT22;56333;51.306;17.056;2023-02-01T05:22:52;4.53;76.45
69225;DHT22;56333;51.306;17.056;2023-02-01T05:24:21;4.53;76.63
69225;DHT22;56333;51.306;17.056;2023-02-01T05:25:51;4.54;76.57
69225;DHT22;56333;51.306;17.056;2023-02-01T05:27:25;4.55;76.47
69225;DHT22;56333;51.306;17.056;2023-02-01T05:28:55;4.55;76.30
69225;DHT22;56333;51.306;17.056;2023-02-01T05:30:24;4.55;76.18
69225;DHT22;56333;51.306;17.056;2023-02-01T05:31:53;4.54;76.03
69225;DHT22;56333;51.306;17.056;2023-02-01T05:33:22;4.52;75.95
69225;DHT22;56333;51.306;17.056;2023-02-01T05:34:52;4.48;75.75
69225;DHT22;56333;51.306;17.056;2023-02-01T05:36:21;4.47;75.78
69225;DHT22;56333;51.306;17.056;2023-02-01T05:37:51;4.45;75.60
69225;DHT22;56333;51.306;17.056;2023-02-01T05:39:20;4.44;75.85
69225;DHT22;56333;51.306;17.056;2023-02-01T05:40:49;4.43;76.05
69225;DHT22;56333;51.306;17.056;2023-02-01T05:42:18;4.42;76.18
69225;DHT22;56333;51.306;17.056;2023-02-01T05:43:47;4.42;76.07
69225;DHT22;56333;51.306;17.056;2023-02-01T05:45:16;4.43;76.18
69225;DHT22;56333;51.306;17.056;2023-02-01T05:46:45;4.40;75.95
69225;DHT22;56333;51.306;17.056;2023-02-01T05:48:16;4.38;75.88
69225;DHT22;56333;51.306;17.056;2023-02-01T05:49:45;4.36;75.82
69225;DHT22;56333;51.306;17.056;2023-02-01T05:51:14;4.34;75.72
69225;DHT22;56333;51.306;17.056;2023-02-01T05:52:43;4.32;75.75
69225;DHT22;56333;51.306;17.056;2023-02-01T05:54:12;4.32;75.60
69225;DHT22;56333;51.306;17.056;2023-02-01T05:55:41;4.30;75.68
69225;DHT22;56333;51.306;17.056;2023-02-01T05:57:10;4.29;75.63
69225;DHT22;56333;51.306;17.056;2023-02-01T05:58:40;4.30;75.85
69225;DHT22;56333;51.306;17.056;2023-02-01T06:00:11;4.30;75.97
69225;DHT22;56333;51.306;17.056;2023-02-01T06:01:41;4.34;76.18
69225;DHT22;56333;51.306;17.056;2023-02-01T06:03:11;4.36;76.32
69225;DHT22;56333;51.306;17.056;2023-02-01T06:04:40;4.41;76.28
69225;DHT22;56333;51.306;17.056;2023-02-01T06:06:09;4.45;76.18
69225;DHT22;56333;51.306;17.056;2023-02-01T06:07:39;4.45;76.03
69225;DHT22;56333;51.306;17.056;2023-02-01T06:09:08;4.47;75.82
69225;DHT22;56333;51.306;17.056;2023-02-01T06:10:38;4.49;75.70
69225;DHT22;56333;51.306;17.056;2023-02-01T06:12:09;4.49;75.68
69225;DHT22;56333;51.306;17.056;2023-02-01T06:13:38;4.50;75.65
69225;DHT22;56333;51.306;17.056;2023-02-01T06:15:10;4.51;75.70
69225;DHT22;56333;51.306;17.056;2023-02-01T06:16:44;4.53;75.68
69225;DHT22;56333;51.306;17.056;2023-02-01T06:18:15;4.53;75.70
69225;DHT22;56333;51.306;17.056;2023-02-01T06:19:46;4.55;75.95
69225;DHT22;56333;51.306;17.056;2023-02-01T06:21:16;4.59;76.10
69225;DHT22;56333;51.306;17.056;2023-02-01T06:22:48;4.63;76.15
69225;DHT22;56333;51.306;17.056;2023-02-01T06:24:18;4.66;76.22
69225;DHT22;56333;51.306;17.056;2023-02-01T06:25:48;4.69;76.00
69225;DHT22;56333;51.306;17.056;2023-02-01T06:27:17;4.73;75.93
69225;DHT22;56333;51.306;17.056;2023-02-01T06:28:47;4.75;75.70
69225;DHT22;56333;51.306;17.056;2023-02-01T06:30:17;4.76;75.35
69225;DHT22;56333;51.306;17.056;2023-02-01T06:31:46;4.76;75.47
69225;DHT22;56333;51.306;17.056;2023-02-01T06:33:16;4.76;75.40
69225;DHT22;56333;51.306;17.056;2023-02-01T06:34:45;4.77;75.35
69225;DHT22;56333;51.306;17.056;2023-02-01T06:36:14;4.78;75.30
69225;DHT22;56333;51.306;17.056;2023-02-01T06:37:45;4.78;75.15
69225;DHT22;56333;51.306;17.056;2023-02-01T06:39:14;4.80;75.15
69225;DHT22;56333;51.306;17.056;2023-02-01T06:40:43;4.81;75.43
69225;DHT22;56333;51.306;17.056;2023-02-01T06:42:19;4.84;75.63
69225;DHT22;56333;51.306;17.056;2023-02-01T06:43:48;4.87;75.57
69225;DHT22;56333;51.306;17.056;2023-02-01T06:45:17;4.89;75.43
69225;DHT22;56333;51.306;17.056;2023-02-01T06:46:46;4.93;75.40
69225;DHT22;56333;51.306;17.056;2023-02-01T06:48:19;4.94;75.32
69225;DHT22;56333;51.306;17.056;2023-02-01T06:49:50;4.95;75.22
69225;DHT22;56333;51.306;17.056;2023-02-01T06:51:24;4.97;75.00
69225;DHT22;56333;51.306;17.056;2023-02-01T06:52:55;4.96;74.70
69225;DHT22;56333;51.306;17.056;2023-02-01T06:54:24;4.99;74.60
69225;DHT22;56333;51.306;17.056;2023-02-01T06:55:54;4.96;74.60
69225;DHT22;56333;51.306;17.056;2023-02-01T06:57:26;4.95;74.57
69225;DHT22;56333;51.306;17.056;2023-02-01T06:58:57;4.95;74.50
69225;DHT22;56333;51.306;17.056;2023-02-01T07:00:27;4.95;74.70
69225;DHT22;56333;51.306;17.056;2023-02-01T07:01:57;4.95;74.95
69225;DHT22;56333;51.306;17.056;2023-02-01T07:03:26;4.99;75.07
69225;DHT22;56333;51.306;17.056;2023-02-01T07:04:57;5.00;75.05
69225;DHT22;56333;51.306;17.056;2023-02-01T07:06:26;5.05;74.97
69225;DHT22;56333;51.306;17.056;2023-02-01T07:07:55;5.06;74.70
69225;DHT22;56333;51.306;17.056;2023-02-01T07:09:25;5.05;74.57
69225;DHT22;56333;51.306;17.056;2023-02-01T07:10:55;5.07;74.57
69225;DHT22;56333;51.306;17.056;2023-02-01T07:12:26;5.08;74.60
69225;DHT22;56333;51.306;17.056;2023-02-01T07:13:55;5.09;74.40
69225;DHT22;56333;51.306;17.056;2023-02-01T07:15:24;5.07;74.10
69225;DHT22;56333;51.306;17.056;2023-02-01T07:16:54;5.08;74.13
69225;DHT22;56333;51.306;17.056;2023-02-01T07:18:24;5.07;74.18
69225;DHT22;56333;51.306;17.056;2023-02-01T07:19:54;5.11;74.43
69225;DHT22;56333;51.306;17.056;2023-02-01T07:21:24;5.12;74.45
69225;DHT22;56333;51.306;17.056;2023-02-01T07:22:57;5.17;74.57
69225;DHT22;56333;51.306;17.056;2023-02-01T07:24:26;5.21;74.53
69225;DHT22;56333;51.306;17.056;2023-02-01T07:25:57;5.23;74.28
69225;DHT22;56333;51.306;17.056;2023-02-01T07:27:29;5.26;74.22
69225;DHT22;56333;51.306;17.056;2023-02-01T07:29:01;5.29;74.07
69225;DHT22;56333;51.306;17.056;2023-02-01T07:30:32;5.29;74.00
69225;DHT22;56333;51.306;17.056;2023-02-01T07:32:02;5.32;73.95
69225;DHT22;56333;51.306;17.056;2023-02-01T07:33:32;5.32;73.93
69225;DHT22;56333;51.306;17.056;2023-02-01T07:35:03;5.33;73.90
69225;DHT22;56333;51.306;17.056;2023-02-01T07:36:34;5.32;73.97
69225;DHT22;56333;51.306;17.056;2023-02-01T07:38:06;5.34;74.28
69225;DHT22;56333;51.306;17.056;2023-02-01T07:39:50;5.37;74.55
69225;DHT22;56333;51.306;17.056;2023-02-01T07:41:20;5.41;74.70
69225;DHT22;56333;51.306;17.056;2023-02-01T07:42:51;5.41;74.53
69225;DHT22;56333;51.306;17.056;2023-02-01T07:44:21;5.41;74.22
69225;DHT22;56333;51.306;17.056;2023-02-01T07:45:53;5.41;74.18
69225;DHT22;56333;51.306;17.056;2023-02-01T07:47:44;5.41;73.93
69225;DHT22;56333;51.306;17.056;2023-02-01T07:49:19;5.36;73.90
69225;DHT22;56333;51.306;17.056;2023-02-01T07:50:56;5.38;73.80
69225;DHT22;56333;51.306;17.056;2023-02-01T07:52:34;5.36;73.68
69225;DHT22;56333;51.306;17.056;2023-02-01T07:54:05;5.37;73.80
69225;DHT22;56333;51.306;17.056;2023-02-01T07:55:39;5.38;73.85
69225;DHT22;56333;51.306;17.056;2023-02-01T07:57:13;5.39;74.03
69225;DHT22;56333;51.306;17.056;2023-02-01T07:58:46;5.42;74.32
69225;DHT22;56333;51.306;17.056;2023-02-01T08:00:50;5.45;74.50
69225;DHT22;56333;51.306;17.056;2023-02-01T08:02:43;5.48;74.40
69225;DHT22;56333;51.306;17.056;2023-02-01T08:04:18;5.51;74.32
69225;DHT22;56333;51.306;17.056;2023-02-01T08:05:54;5.52;74.28
69225;DHT22;56333;51.306;17.056;2023-02-01T08:07:30;5.55;74.10
69225;DHT22;56333;51.306;17.056;2023-02-01T08:09:01;5.56;74.00
69225;DHT22;56333;51.306;17.056;2023-02-01T08:10:34;5.56;73.90
69225;DHT22;56333;51.306;17.056;2023-02-01T08:12:06;5.56;73.72
69225;DHT22;56333;51.306;17.056;2023-02-01T08:13:36;5.55;73.80
69225;DHT22;56333;51.306;17.056;2023-02-01T08:15:09;5.55;73.97
69225;DHT22;56333;51.306;17.056;2023-02-01T08:16:54;5.56;74.20
69225;DHT22;56333;51.306;17.056;2023-02-01T08:18:26;5.59;74.53
69225;DHT22;56333;51.306;17.056;2023-02-01T08:20:01;5.63;74.68
69225;DHT22;56333;51.306;17.056;2023-02-01T08:21:34;5.66;74.50
69225;DHT22;56333;51.306;17.056;2023-02-01T08:23:06;5.70;74.43
69225;DHT22;56333;51.306;17.056;2023-02-01T08:24:38;5.73;74.30
69225;DHT22;56333;51.306;17.056;2023-02-01T08:26:10;5.74;74.20
69225;DHT22;56333;51.306;17.056;2023-02-01T08:27:58;5.78;74.20
69225;DHT22;56333;51.306;17.056;2023-02-01T08:29:33;5.81;74.05
69225;DHT22;56333;51.306;17.056;2023-02-01T08:31:08;5.82;73.97
69225;DHT22;56333;51.306;17.056;2023-02-01T08:32:41;5.82;73.82
69225;DHT22;56333;51.306;17.056;2023-02-01T08:34:14;5.81;73.80
69225;DHT22;56333;51.306;17.056;2023-02-01T08:35:43;5.83;73.85
69225;DHT22;56333;51.306;17.056;2023-02-01T08:37:13;5.83;74.07
69225;DHT22;56333;51.306;17.056;2023-02-01T08:38:44;5.85;74.32
69225;DHT22;56333;51.306;17.056;2023-02-01T08:40:14;5.88;74.20
69225;DHT22;56333;51.306;17.056;2023-02-01T08:41:46;5.89;74.20
69225;DHT22;56333;51.306;17.056;2023-02-01T08:43:30;5.90;74.03
69225;DHT22;56333;51.306;17.056;2023-02-01T08:45:03;5.89;73.90
69225;DHT22;56333;51.306;17.056;2023-02-01T08:46:34;5.87;73.82
69225;DHT22;56333;51.306;17.056;2023-02-01T08:48:03;5.87;73.63
69225;DHT22;56333;51.306;17.056;2023-02-01T08:49:34;5.84;73.65
69225;DHT22;56333;51.306;17.056;2023-02-01T08:51:07;5.83;73.63
69225;DHT22;56333;51.306;17.056;2023-02-01T08:54:32;5.79;74.00
69225;DHT22;56333;51.306;17.056;2023-02-01T08:56:07;5.80;74.13
69225;DHT22;56333;51.306;17.056;2023-02-01T08:57:39;5.81;74.38
69225;DHT22;56333;51.306;17.056;2023-02-01T08:59:09;5.86;74.53
69225;DHT22;56333;51.306;17.056;2023-02-01T09:00:38;5.86;74.30
69225;DHT22;56333;51.306;17.056;2023-02-01T09:02:09;5.88;74.00
69225;DHT22;56333;51.306;17.056;2023-02-01T09:03:42;5.90;73.80
69225;DHT22;56333;51.306;17.056;2023-02-01T09:05:12;5.91;73.72
69225;DHT22;56333;51.306;17.056;2023-02-01T09:06:43;5.91;73.60
69225;DHT22;56333;51.306;17.056;2023-02-01T09:08:13;5.89;73.72
69225;DHT22;56333;51.306;17.056;2023-02-01T09:09:45;5.89;73.82
69225;DHT22;56333;51.306;17.056;2023-02-01T09:11:16;5.87;74.07
69225;DHT22;56333;51.306;17.056;2023-02-01T09:12:48;5.86;74.45
69225;DHT22;56333;51.306;17.056;2023-02-01T09:14:23;5.88;74.70
69225;DHT22;56333;51.306;17.056;2023-02-01T09:15:54;5.89;74.88
69225;DHT22;56333;51.306;17.056;2023-02-01T09:17:38;5.89;74.90
69225;DHT22;56333;51.306;17.056;2023-02-01T09:19:13;5.93;74.90
69225;DHT22;56333;51.306;17.056;2023-02-01T09:20:48;6.00;74.88
69225;DHT22;56333;51.306;17.056;2023-02-01T09:22:21;6.03;74.75
69225;DHT22;56333;51.306;17.056;2023-02-01T09:25:42;6.08;74.63
69225;DHT22;56333;51.306;17.056;2023-02-01T09:27:18;6.15;74.90
69225;DHT22;56333;51.306;17.056;2023-02-01T09:28:50;6.24;75.30
69225;DHT22;56333;51.306;17.056;2023-02-01T09:30:39;6.36;75.32
69225;DHT22;56333;51.306;17.056;2023-02-01T09:32:10;6.41;75.25
69225;DHT22;56333;51.306;17.056;2023-02-01T09:33:39;6.48;75.10
69225;DHT22;56333;51.306;17.056;2023-02-01T09:35:10;6.52;74.85
69225;DHT22;56333;51.306;17.056;2023-02-01T09:36:44;6.55;74.72
69225;DHT22;56333;51.306;17.056;2023-02-01T09:38:15;6.57;74.70
69225;DHT22;56333;51.306;17.056;2023-02-01T09:39:45;6.59;74.53
69225;DHT22;56333;51.306;17.056;2023-02-01T09:41:26;6.61;74.20
69225;DHT22;56333;51.306;17.056;2023-02-01T09:43:24;6.59;74.50
69225;DHT22;56333;51.306;17.056;2023-02-01T09:45:13;6.65;74.70
69225;DHT22;56333;51.306;17.056;2023-02-01T09:46:54;6.68;74.63
69225;DHT22;56333;51.306;17.056;2023-02-01T09:48:30;6.69;74.18
69225;DHT22;56333;51.306;17.056;2023-02-01T09:50:09;6.70;74.00
69225;DHT22;56333;51.306;17.056;2023-02-01T09:51:46;6.74;73.90
69225;DHT22;56333;51.306;17.056;2023-02-01T09:53:37;6.76;73.18
69225;DHT22;56333;51.306;17.056;2023-02-01T09:55:13;6.74;73.07
69225;DHT22;56333;51.306;17.056;2023-02-01T09:56:54;6.74;73.00